sensor_id;sensor_type;location;lat;lon;timestamp;P1;durP1;ratioP1;P2;durP2;ratioP2
7108;SDS011;29079;41.930;25.558;2023-07-16T00:00:29;4.90;;;4.00;;
7108;SDS011;29079;41.930;25.558;2023-07-16T00:03:17;4.80;;;3.55;;
7108;SDS011;29079;41.930;25.558;2023-07-16T00:06:05;6.95;;;4.15;;
7108;SDS011;29079;41.930;25.558;2023-07-16T00:08:54;4.05;;;3.65;;
7108;SDS011;29079;41.930;25.558;2023-07-16T00:11:42;5.15;;;3.47;;
7108;SDS011;29079;41.930;25.558;2023-07-16T00:14:29;4.68;;;4.05;;
7108;SDS011;29079;41.930;25.558;2023-07-16T00:17:17;4.82;;;4.22;;
7108;SDS011;29079;41.930;25.558;2023-07-16T00:20:06;6.40;;;4.03;;
7108;SDS011;29079;41.930;25.558;2023-07-16T00:22:55;4.07;;;3.50;;
7108;SDS011;29079;41.930;25.558;2023-07-16T00:25:45;6.15;;;3.92;;
7108;SDS011;29079;41.930;25.558;2023-07-16T00:28:33;4.80;;;3.90;;
7108;SDS011;29079;41.930;25.558;2023-07-16T00:31:21;6.97;;;3.30;;
7108;SDS011;29079;41.930;25.558;2023-07-16T00:34:09;4.95;;;3.60;;
7108;SDS011;29079;41.930;25.558;2023-07-16T00:36:58;4.47;;;4.07;;
7108;SDS011;29079;41.930;25.558;2023-07-16T00:39:48;3.85;;;3.47;;
7108;SDS011;29079;41.930;25.558;2023-07-16T00:42:37;5.40;;;3.50;;
7108;SDS011;29079;41.930;25.558;2023-07-16T00:45:25;4.55;;;4.13;;
7108;SDS011;29079;41.930;25.558;2023-07-16T00:48:14;3.50;;;3.20;;
7108;SDS011;29079;41.930;25.558;2023-07-16T00:51:03;5.35;;;3.75;;
7108;SDS011;29079;41.930;25.558;2023-07-16T00:53:52;4.47;;;3.88;;
7108;SDS011;29079;41.930;25.558;2023-07-16T00:56:40;6.13;;;4.05;;
7108;SDS011;29079;41.930;25.558;2023-07-16T00:59:30;6.53;;;4.28;;
7108;SDS011;29079;41.930;25.558;2023-07-16T01:02:17;3.67;;;3.38;;
7108;SDS011;29079;41.930;25.558;2023-07-16T01:05:06;6.22;;;3.20;;
7108;SDS011;29079;41.930;25.558;2023-07-16T01:07:55;3.90;;;3.40;;
7108;SDS011;29079;41.930;25.558;2023-07-16T01:10:46;7.38;;;3.38;;
7108;SDS011;29079;41.930;25.558;2023-07-16T01:13:34;3.92;;;3.53;;
7108;SDS011;29079;41.930;25.558;2023-07-16T01:16:24;6.03;;;3.80;;
7108;SDS011;29079;41.930;25.558;2023-07-16T01:19:12;5.38;;;3.40;;
7108;SDS011;29079;41.930;25.558;2023-07-16T01:22:03;5.60;;;3.60;;
7108;SDS011;29079;41.930;25.558;2023-07-16T01:31:45;4.07;;;3.33;;
7108;SDS011;29079;41.930;25.558;2023-07-16T01:34:34;5.97;;;4.25;;
7108;SDS011;29079;41.930;25.558;2023-07-16T01:37:23;7.20;;;3.80;;
7108;SDS011;29079;41.930;25.558;2023-07-16T01:40:11;7.30;;;4.10;;
7108;SDS011;29079;41.930;25.558;2023-07-16T01:43:00;5.30;;;3.65;;
7108;SDS011;29079;41.930;25.558;2023-07-16T01:45:48;4.72;;;3.80;;
7108;SDS011;29079;41.930;25.558;2023-07-16T01:48:37;7.18;;;4.65;;
7108;SDS011;29079;41.930;25.558;2023-07-16T01:51:25;5.60;;;3.80;;
7108;SDS011;29079;41.930;25.558;2023-07-16T01:54:13;4.63;;;4.22;;
7108;SDS011;29079;41.930;25.558;2023-07-16T01:57:01;7.07;;;4.53;;
7108;SDS011;29079;41.930;25.558;2023-07-16T01:59:49;5.85;;;5.13;;
7108;SDS011;29079;41.930;25.558;2023-07-16T02:02:37;4.07;;;3.67;;
7108;SDS011;29079;41.930;25.558;2023-07-16T02:05:26;6.70;;;5.03;;
7108;SDS011;29079;41.930;25.558;2023-07-16T02:08:14;4.90;;;4.15;;
7108;SDS011;29079;41.930;25.558;2023-07-16T02:11:02;6.53;;;4.40;;
7108;SDS011;29079;41.930;25.558;2023-07-16T02:13:50;6.30;;;4.35;;
7108;SDS011;29079;41.930;25.558;2023-07-16T02:16:38;7.38;;;4.30;;
7108;SDS011;29079;41.930;25.558;2023-07-16T02:19:25;6.20;;;4.63;;
7108;SDS011;29079;41.930;25.558;2023-07-16T02:22:15;7.65;;;4.40;;
7108;SDS011;29079;41.930;25.558;2023-07-16T02:25:03;5.80;;;5.20;;
7108;SDS011;29079;41.930;25.558;2023-07-16T02:27:51;6.13;;;4.30;;
7108;SDS011;29079;41.930;25.558;2023-07-16T02:30:40;4.95;;;4.43;;
7108;SDS011;29079;41.930;25.558;2023-07-16T02:33:28;5.40;;;4.80;;
7108;SDS011;29079;41.930;25.558;2023-07-16T02:36:16;7.47;;;4.88;;
7108;SDS011;29079;41.930;25.558;2023-07-16T02:39:05;6.38;;;4.93;;
7108;SDS011;29079;41.930;25.558;2023-07-16T02:41:53;7.07;;;4.97;;
7108;SDS011;29079;41.930;25.558;2023-07-16T02:44:41;5.38;;;4.57;;
7108;SDS011;29079;41.930;25.558;2023-07-16T02:47:31;8.13;;;4.88;;
7108;SDS011;29079;41.930;25.558;2023-07-16T02:50:19;9.98;;;4.68;;
7108;SDS011;29079;41.930;25.558;2023-07-16T02:53:07;5.25;;;4.65;;
7108;SDS011;29079;41.930;25.558;2023-07-16T02:55:56;8.13;;;4.65;;
7108;SDS011;29079;41.930;25.558;2023-07-16T02:58:44;7.35;;;4.85;;
7108;SDS011;29079;41.930;25.558;2023-07-16T03:01:32;4.53;;;4.13;;
7108;SDS011;29079;41.930;25.558;2023-07-16T03:04:20;5.10;;;4.60;;
7108;SDS011;29079;41.930;25.558;2023-07-16T03:07:08;6.78;;;4.53;;
7108;SDS011;29079;41.930;25.558;2023-07-16T03:09:56;6.32;;;4.70;;
7108;SDS011;29079;41.930;25.558;2023-07-16T03:12:45;5.65;;;4.93;;
7108;SDS011;29079;41.930;25.558;2023-07-16T03:15:33;5.78;;;4.97;;
7108;SDS011;29079;41.930;25.558;2023-07-16T03:18:21;6.63;;;5.25;;
7108;SDS011;29079;41.930;25.558;2023-07-16T03:21:09;7.22;;;5.35;;
7108;SDS011;29079;41.930;25.558;2023-07-16T03:23:57;5.35;;;4.75;;
7108;SDS011;29079;41.930;25.558;2023-07-16T03:26:45;6.95;;;5.57;;
7108;SDS011;29079;41.930;25.558;2023-07-16T03:29:34;7.55;;;5.38;;
7108;SDS011;29079;41.930;25.558;2023-07-16T03:32:22;7.22;;;5.00;;
7108;SDS011;29079;41.930;25.558;2023-07-16T03:35:19;6.88;;;5.72;;
7108;SDS011;29079;41.930;25.558;2023-07-16T03:38:11;5.47;;;4.50;;
7108;SDS011;29079;41.930;25.558;2023-07-16T03:40:59;7.18;;;5.10;;
7108;SDS011;29079;41.930;25.558;2023-07-16T03:43:47;6.90;;;5.03;;
7108;SDS011;29079;41.930;25.558;2023-07-16T03:46:36;9.23;;;5.38;;
7108;SDS011;29079;41.930;25.558;2023-07-16T03:49:24;6.47;;;5.78;;
7108;SDS011;29079;41.930;25.558;2023-07-16T03:52:12;6.75;;;5.45;;
7108;SDS011;29079;41.930;25.558;2023-07-16T03:55:00;5.63;;;5.13;;
7108;SDS011;29079;41.930;25.558;2023-07-16T03:57:48;8.85;;;4.88;;
7108;SDS011;29079;41.930;25.558;2023-07-16T04:00:36;5.65;;;4.97;;
7108;SDS011;29079;41.930;25.558;2023-07-16T04:03:25;6.22;;;4.88;;
7108;SDS011;29079;41.930;25.558;2023-07-16T04:06:13;7.13;;;5.32;;
7108;SDS011;29079;41.930;25.558;2023-07-16T04:09:02;6.50;;;5.10;;
7108;SDS011;29079;41.930;25.558;2023-07-16T04:11:50;5.65;;;5.15;;
7108;SDS011;29079;41.930;25.558;2023-07-16T04:14:38;7.75;;;5.40;;
7108;SDS011;29079;41.930;25.558;2023-07-16T04:17:26;8.65;;;5.40;;
7108;SDS011;29079;41.930;25.558;2023-07-16T04:20:15;5.35;;;4.25;;
7108;SDS011;29079;41.930;25.558;2023-07-16T04:23:03;5.00;;;4.22;;
7108;SDS011;29079;41.930;25.558;2023-07-16T04:25:51;5.70;;;4.20;;
7108;SDS011;29079;41.930;25.558;2023-07-16T04:28:40;6.90;;;5.22;;
7108;SDS011;29079;41.930;25.558;2023-07-16T04:31:28;5.13;;;4.63;;
7108;SDS011;29079;41.930;25.558;2023-07-16T04:34:16;6.18;;;4.40;;
7108;SDS011;29079;41.930;25.558;2023-07-16T04:37:06;4.40;;;4.00;;
7108;SDS011;29079;41.930;25.558;2023-07-16T04:39:54;7.88;;;4.93;;
7108;SDS011;29079;41.930;25.558;2023-07-16T04:42:41;4.53;;;4.10;;
7108;SDS011;29079;41.930;25.558;2023-07-16T04:45:29;5.28;;;4.28;;
7108;SDS011;29079;41.930;25.558;2023-07-16T04:48:17;6.70;;;4.78;;
7108;SDS011;29079;41.930;25.558;2023-07-16T04:51:05;5.32;;;4.45;;
7108;SDS011;29079;41.930;25.558;2023-07-16T04:53:54;5.65;;;4.82;;
7108;SDS011;29079;41.930;25.558;2023-07-16T04:56:41;4.68;;;3.92;;
7108;SDS011;29079;41.930;25.558;2023-07-16T04:59:29;4.80;;;3.88;;
7108;SDS011;29079;41.930;25.558;2023-07-16T05:02:17;7.68;;;4.20;;
7108;SDS011;29079;41.930;25.558;2023-07-16T05:05:05;5.78;;;4.35;;
7108;SDS011;29079;41.930;25.558;2023-07-16T05:07:54;6.18;;;4.82;;
7108;SDS011;29079;41.930;25.558;2023-07-16T05:10:43;8.63;;;4.32;;
7108;SDS011;29079;41.930;25.558;2023-07-16T05:13:31;8.30;;;4.75;;
7108;SDS011;29079;41.930;25.558;2023-07-16T05:16:19;5.13;;;4.10;;
7108;SDS011;29079;41.930;25.558;2023-07-16T05:19:07;8.13;;;4.15;;
7108;SDS011;29079;41.930;25.558;2023-07-16T05:21:55;6.82;;;4.82;;
7108;SDS011;29079;41.930;25.558;2023-07-16T05:24:43;8.13;;;4.95;;
7108;SDS011;29079;41.930;25.558;2023-07-16T05:27:33;8.02;;;5.00;;
7108;SDS011;29079;41.930;25.558;2023-07-16T05:30:21;8.30;;;6.60;;
7108;SDS011;29079;41.930;25.558;2023-07-16T05:33:11;8.50;;;5.78;;
7108;SDS011;29079;41.930;25.558;2023-07-16T05:35:59;7.28;;;5.43;;
7108;SDS011;29079;41.930;25.558;2023-07-16T05:38:47;5.90;;;4.93;;
7108;SDS011;29079;41.930;25.558;2023-07-16T05:41:35;8.40;;;6.00;;
7108;SDS011;29079;41.930;25.558;2023-07-16T05:44:24;9.35;;;5.35;;
7108;SDS011;29079;41.930;25.558;2023-07-16T05:47:12;6.32;;;4.85;;
7108;SDS011;29079;41.930;25.558;2023-07-16T05:50:01;5.93;;;5.38;;
7108;SDS011;29079;41.930;25.558;2023-07-16T05:52:49;5.55;;;5.03;;
7108;SDS011;29079;41.930;25.558;2023-07-16T05:55:39;7.95;;;5.72;;
7108;SDS011;29079;41.930;25.558;2023-07-16T05:58:27;6.85;;;5.30;;
7108;SDS011;29079;41.930;25.558;2023-07-16T06:01:16;4.85;;;4.20;;
7108;SDS011;29079;41.930;25.558;2023-07-16T06:04:04;10.50;;;5.20;;
7108;SDS011;29079;41.930;25.558;2023-07-16T06:06:52;5.65;;;5.07;;
7108;SDS011;29079;41.930;25.558;2023-07-16T06:09:40;6.10;;;4.65;;
7108;SDS011;29079;41.930;25.558;2023-07-16T06:12:28;5.70;;;4.72;;
7108;SDS011;29079;41.930;25.558;2023-07-16T06:15:16;6.32;;;5.60;;
7108;SDS011;29079;41.930;25.558;2023-07-16T06:18:05;7.35;;;5.43;;
7108;SDS011;29079;41.930;25.558;2023-07-16T06:20:53;4.72;;;4.00;;
7108;SDS011;29079;41.930;25.558;2023-07-16T06:23:42;10.13;;;5.40;;
7108;SDS011;29079;41.930;25.558;2023-07-16T06:26:30;7.43;;;5.47;;
7108;SDS011;29079;41.930;25.558;2023-07-16T06:29:18;5.22;;;4.15;;
7108;SDS011;29079;41.930;25.558;2023-07-16T06:32:06;5.35;;;4.82;;
7108;SDS011;29079;41.930;25.558;2023-07-16T06:34:56;9.50;;;7.38;;
7108;SDS011;29079;41.930;25.558;2023-07-16T06:37:44;7.03;;;4.13;;
7108;SDS011;29079;41.930;25.558;2023-07-16T06:40:33;5.95;;;4.55;;
7108;SDS011;29079;41.930;25.558;2023-07-16T06:43:21;6.05;;;4.78;;
7108;SDS011;29079;41.930;25.558;2023-07-16T06:46:09;5.55;;;4.88;;
7108;SDS011;29079;41.930;25.558;2023-07-16T06:48:57;4.38;;;3.97;;
7108;SDS011;29079;41.930;25.558;2023-07-16T06:51:46;9.73;;;7.75;;
7108;SDS011;29079;41.930;25.558;2023-07-16T06:54:34;4.68;;;4.18;;
7108;SDS011;29079;41.930;25.558;2023-07-16T06:57:22;6.90;;;5.35;;
7108;SDS011;29079;41.930;25.558;2023-07-16T07:00:11;6.43;;;5.63;;
7108;SDS011;29079;41.930;25.558;2023-07-16T07:02:59;7.20;;;3.75;;
7108;SDS011;29079;41.930;25.558;2023-07-16T07:05:47;4.10;;;3.70;;
7108;SDS011;29079;41.930;25.558;2023-07-16T07:08:36;4.28;;;3.53;;
7108;SDS011;29079;41.930;25.558;2023-07-16T07:11:24;5.47;;;3.63;;
7108;SDS011;29079;41.930;25.558;2023-07-16T07:14:12;5.05;;;3.53;;
7108;SDS011;29079;41.930;25.558;2023-07-16T07:17:00;3.97;;;3.55;;
7108;SDS011;29079;41.930;25.558;2023-07-16T07:19:48;4.13;;;3.65;;
7108;SDS011;29079;41.930;25.558;2023-07-16T07:22:36;4.10;;;3.63;;
7108;SDS011;29079;41.930;25.558;2023-07-16T07:25:25;4.65;;;3.85;;
7108;SDS011;29079;41.930;25.558;2023-07-16T07:28:13;3.83;;;3.47;;
7108;SDS011;29079;41.930;25.558;2023-07-16T07:31:01;5.63;;;3.40;;
7108;SDS011;29079;41.930;25.558;2023-07-16T07:33:49;5.75;;;3.63;;
7108;SDS011;29079;41.930;25.558;2023-07-16T07:36:36;3.67;;;3.38;;
7108;SDS011;29079;41.930;25.558;2023-07-16T07:39:24;4.78;;;4.10;;
7108;SDS011;29079;41.930;25.558;2023-07-16T07:42:13;6.35;;;3.45;;
7108;SDS011;29079;41.930;25.558;2023-07-16T07:45:01;4.10;;;2.95;;
7108;SDS011;29079;41.930;25.558;2023-07-16T07:47:50;4.32;;;3.58;;
7108;SDS011;29079;41.930;25.558;2023-07-16T07:50:38;4.35;;;3.72;;
7108;SDS011;29079;41.930;25.558;2023-07-16T07:53:26;4.80;;;3.83;;
7108;SDS011;29079;41.930;25.558;2023-07-16T07:56:14;4.65;;;3.92;;
7108;SDS011;29079;41.930;25.558;2023-07-16T07:59:03;4.50;;;4.07;;
7108;SDS011;29079;41.930;25.558;2023-07-16T08:01:51;3.17;;;2.90;;
7108;SDS011;29079;41.930;25.558;2023-07-16T08:04:39;3.45;;;3.15;;
7108;SDS011;29079;41.930;25.558;2023-07-16T08:07:27;4.40;;;3.60;;
7108;SDS011;29079;41.930;25.558;2023-07-16T08:10:15;4.20;;;3.55;;
7108;SDS011;29079;41.930;25.558;2023-07-16T08:13:03;3.90;;;3.10;;
7108;SDS011;29079;41.930;25.558;2023-07-16T08:15:52;3.67;;;3.38;;
7108;SDS011;29079;41.930;25.558;2023-07-16T08:18:40;6.53;;;3.55;;
7108;SDS011;29079;41.930;25.558;2023-07-16T08:21:28;3.60;;;3.30;;
7108;SDS011;29079;41.930;25.558;2023-07-16T08:24:16;5.53;;;3.17;;
7108;SDS011;29079;41.930;25.558;2023-07-16T08:27:04;4.65;;;3.20;;
7108;SDS011;29079;41.930;25.558;2023-07-16T08:29:52;5.35;;;4.05;;
7108;SDS011;29079;41.930;25.558;2023-07-16T08:32:41;4.22;;;3.70;;
7108;SDS011;29079;41.930;25.558;2023-07-16T08:35:29;4.50;;;3.65;;
7108;SDS011;29079;41.930;25.558;2023-07-16T08:38:17;2.72;;;2.50;;
7108;SDS011;29079;41.930;25.558;2023-07-16T08:41:04;4.07;;;2.88;;
7108;SDS011;29079;41.930;25.558;2023-07-16T08:43:52;5.65;;;3.15;;
7108;SDS011;29079;41.930;25.558;2023-07-16T08:46:41;3.42;;;3.10;;
7108;SDS011;29079;41.930;25.558;2023-07-16T08:49:30;3.85;;;3.38;;
7108;SDS011;29079;41.930;25.558;2023-07-16T08:52:21;3.42;;;2.40;;
7108;SDS011;29079;41.930;25.558;2023-07-16T08:55:09;6.55;;;3.80;;
7108;SDS011;29079;41.930;25.558;2023-07-16T08:57:57;3.70;;;3.30;;
7108;SDS011;29079;41.930;25.558;2023-07-16T09:00:45;4.28;;;3.42;;
7108;SDS011;29079;41.930;25.558;2023-07-16T09:03:35;4.85;;;3.35;;
7108;SDS011;29079;41.930;25.558;2023-07-16T09:06:24;4.40;;;3.17;;
7108;SDS011;29079;41.930;25.558;2023-07-16T09:09:13;4.28;;;3.42;;
7108;SDS011;29079;41.930;25.558;2023-07-16T09:12:11;3.53;;;3.15;;
7108;SDS011;29079;41.930;25.558;2023-07-16T09:14:59;3.25;;;2.95;;
7108;SDS011;29079;41.930;25.558;2023-07-16T09:17:47;3.70;;;2.75;;
7108;SDS011;29079;41.930;25.558;2023-07-16T09:20:35;3.30;;;2.78;;
7108;SDS011;29079;41.930;25.558;2023-07-16T09:23:27;6.00;;;2.95;;
7108;SDS011;29079;41.930;25.558;2023-07-16T09:26:17;4.03;;;3.22;;
7108;SDS011;29079;41.930;25.558;2023-07-16T09:29:05;4.57;;;3.35;;
7108;SDS011;29079;41.930;25.558;2023-07-16T09:31:54;3.50;;;3.20;;
7108;SDS011;29079;41.930;25.558;2023-07-16T09:34:43;6.18;;;2.58;;
7108;SDS011;29079;41.930;25.558;2023-07-16T09:37:31;5.18;;;3.35;;
7108;SDS011;29079;41.930;25.558;2023-07-16T09:40:20;3.20;;;2.92;;
7108;SDS011;29079;41.930;25.558;2023-07-16T09:43:08;2.90;;;2.60;;
7108;SDS011;29079;41.930;25.558;2023-07-16T09:45:57;5.18;;;3.45;;
7108;SDS011;29079;41.930;25.558;2023-07-16T09:48:45;4.20;;;3.40;;
7108;SDS011;29079;41.930;25.558;2023-07-16T09:51:32;10.88;;;3.58;;
7108;SDS011;29079;41.930;25.558;2023-07-16T09:54:24;4.65;;;3.08;;
7108;SDS011;29079;41.930;25.558;2023-07-16T09:57:14;4.95;;;3.22;;
7108;SDS011;29079;41.930;25.558;2023-07-16T10:00:04;4.00;;;2.75;;
7108;SDS011;29079;41.930;25.558;2023-07-16T10:02:54;7.63;;;3.58;;
7108;SDS011;29079;41.930;25.558;2023-07-16T10:05:42;5.22;;;3.40;;
7108;SDS011;29079;41.930;25.558;2023-07-16T10:08:33;5.20;;;3.67;;
7108;SDS011;29079;41.930;25.558;2023-07-16T10:11:21;5.10;;;3.75;;
7108;SDS011;29079;41.930;25.558;2023-07-16T10:14:11;4.40;;;4.00;;
7108;SDS011;29079;41.930;25.558;2023-07-16T10:17:01;4.03;;;3.60;;
7108;SDS011;29079;41.930;25.558;2023-07-16T10:19:49;3.95;;;3.55;;
7108;SDS011;29079;41.930;25.558;2023-07-16T10:22:39;3.90;;;3.50;;
7108;SDS011;29079;41.930;25.558;2023-07-16T10:25:28;3.17;;;2.97;;
7108;SDS011;29079;41.930;25.558;2023-07-16T10:28:16;3.45;;;3.15;;
7108;SDS011;29079;41.930;25.558;2023-07-16T10:31:05;4.57;;;3.53;;
7108;SDS011;29079;41.930;25.558;2023-07-16T10:34:04;3.92;;;3.20;;
7108;SDS011;29079;41.930;25.558;2023-07-16T10:36:52;6.68;;;4.03;;
7108;SDS011;29079;41.930;25.558;2023-07-16T10:39:45;3.35;;;3.05;;
7108;SDS011;29079;41.930;25.558;2023-07-16T10:42:34;5.88;;;4.18;;
7108;SDS011;29079;41.930;25.558;2023-07-16T10:45:22;4.45;;;4.05;;
7108;SDS011;29079;41.930;25.558;2023-07-16T10:48:12;4.90;;;3.55;;
7108;SDS011;29079;41.930;25.558;2023-07-16T10:51:01;7.07;;;4.13;;
7108;SDS011;29079;41.930;25.558;2023-07-16T10:53:49;6.70;;;3.63;;
7108;SDS011;29079;41.930;25.558;2023-07-16T10:56:37;3.88;;;3.45;;
7108;SDS011;29079;41.930;25.558;2023-07-16T10:59:25;3.85;;;3.47;;
7108;SDS011;29079;41.930;25.558;2023-07-16T11:02:13;5.93;;;3.72;;
7108;SDS011;29079;41.930;25.558;2023-07-16T11:05:03;5.10;;;3.90;;
7108;SDS011;29079;41.930;25.558;2023-07-16T11:07:51;3.58;;;3.28;;
7108;SDS011;29079;41.930;25.558;2023-07-16T11:10:41;5.18;;;4.28;;
7108;SDS011;29079;41.930;25.558;2023-07-16T11:13:29;4.80;;;3.85;;
7108;SDS011;29079;41.930;25.558;2023-07-16T11:16:19;6.28;;;4.22;;
7108;SDS011;29079;41.930;25.558;2023-07-16T11:19:07;5.30;;;4.05;;
7108;SDS011;29079;41.930;25.558;2023-07-16T11:21:56;10.57;;;8.98;;
7108;SDS011;29079;41.930;25.558;2023-07-16T11:24:44;11.57;;;10.27;;
7108;SDS011;29079;41.930;25.558;2023-07-16T11:27:33;9.55;;;7.53;;
7108;SDS011;29079;41.930;25.558;2023-07-16T11:30:22;24.38;;;19.33;;
7108;SDS011;29079;41.930;25.558;2023-07-16T11:33:11;9.10;;;6.35;;
7108;SDS011;29079;41.930;25.558;2023-07-16T11:36:00;5.47;;;4.90;;
7108;SDS011;29079;41.930;25.558;2023-07-16T11:38:50;8.52;;;6.15;;
7108;SDS011;29079;41.930;25.558;2023-07-16T11:41:38;6.00;;;5.40;;
7108;SDS011;29079;41.930;25.558;2023-07-16T11:44:26;6.38;;;4.88;;
7108;SDS011;29079;41.930;25.558;2023-07-16T11:50:08;9.35;;;7.40;;
7108;SDS011;29079;41.930;25.558;2023-07-16T11:52:58;5.88;;;4.60;;
7108;SDS011;29079;41.930;25.558;2023-07-16T11:55:49;5.60;;;4.60;;
7108;SDS011;29079;41.930;25.558;2023-07-16T11:58:37;7.78;;;6.50;;
7108;SDS011;29079;41.930;25.558;2023-07-16T12:01:24;7.05;;;5.80;;
7108;SDS011;29079;41.930;25.558;2023-07-16T12:04:12;8.93;;;7.90;;
7108;SDS011;29079;41.930;25.558;2023-07-16T12:07:00;6.88;;;6.18;;
7108;SDS011;29079;41.930;25.558;2023-07-16T12:09:48;5.78;;;4.80;;
7108;SDS011;29079;41.930;25.558;2023-07-16T12:12:38;6.93;;;4.68;;
7108;SDS011;29079;41.930;25.558;2023-07-16T12:15:25;7.07;;;5.50;;
7108;SDS011;29079;41.930;25.558;2023-07-16T12:18:13;5.47;;;4.68;;
7108;SDS011;29079;41.930;25.558;2023-07-16T12:21:02;7.63;;;5.78;;
7108;SDS011;29079;41.930;25.558;2023-07-16T12:23:49;8.13;;;5.97;;
7108;SDS011;29079;41.930;25.558;2023-07-16T12:26:37;8.63;;;5.25;;
7108;SDS011;29079;41.930;25.558;2023-07-16T12:29:27;7.50;;;5.40;;
7108;SDS011;29079;41.930;25.558;2023-07-16T12:32:15;7.10;;;5.78;;
7108;SDS011;29079;41.930;25.558;2023-07-16T12:35:03;30.20;;;26.75;;
7108;SDS011;29079;41.930;25.558;2023-07-16T12:37:51;13.48;;;10.48;;
7108;SDS011;29079;41.930;25.558;2023-07-16T12:40:39;9.90;;;7.05;;
7108;SDS011;29079;41.930;25.558;2023-07-16T12:43:27;6.07;;;5.47;;
7108;SDS011;29079;41.930;25.558;2023-07-16T12:46:16;8.10;;;5.57;;
7108;SDS011;29079;41.930;25.558;2023-07-16T12:49:05;6.10;;;5.40;;
7108;SDS011;29079;41.930;25.558;2023-07-16T12:51:53;6.82;;;6.05;;
7108;SDS011;29079;41.930;25.558;2023-07-16T12:54:41;6.30;;;5.57;;
7108;SDS011;29079;41.930;25.558;2023-07-16T12:57:29;8.75;;;6.38;;
7108;SDS011;29079;41.930;25.558;2023-07-16T13:00:16;7.40;;;6.35;;
7108;SDS011;29079;41.930;25.558;2023-07-16T13:03:06;9.35;;;7.43;;
7108;SDS011;29079;41.930;25.558;2023-07-16T13:05:58;9.45;;;6.80;;
7108;SDS011;29079;41.930;25.558;2023-07-16T13:08:46;9.05;;;6.97;;
7108;SDS011;29079;41.930;25.558;2023-07-16T13:11:33;16.60;;;7.72;;
7108;SDS011;29079;41.930;25.558;2023-07-16T13:14:21;16.30;;;8.05;;
7108;SDS011;29079;41.930;25.558;2023-07-16T13:17:09;10.38;;;7.68;;
7108;SDS011;29079;41.930;25.558;2023-07-16T13:19:59;10.13;;;6.07;;
7108;SDS011;29079;41.930;25.558;2023-07-16T13:22:47;8.82;;;7.25;;
7108;SDS011;29079;41.930;25.558;2023-07-16T13:25:35;8.73;;;7.13;;
7108;SDS011;29079;41.930;25.558;2023-07-16T13:28:24;7.68;;;6.95;;
7108;SDS011;29079;41.930;25.558;2023-07-16T13:31:12;9.10;;;7.78;;
7108;SDS011;29079;41.930;25.558;2023-07-16T13:34:00;9.82;;;7.55;;
7108;SDS011;29079;41.930;25.558;2023-07-16T13:36:49;9.55;;;7.38;;
7108;SDS011;29079;41.930;25.558;2023-07-16T13:39:37;7.82;;;7.03;;
7108;SDS011;29079;41.930;25.558;2023-07-16T13:42:25;8.80;;;7.90;;
7108;SDS011;29079;41.930;25.558;2023-07-16T13:45:12;10.93;;;8.02;;
7108;SDS011;29079;41.930;25.558;2023-07-16T13:48:01;9.20;;;8.25;;
7108;SDS011;29079;41.930;25.558;2023-07-16T13:50:48;12.13;;;8.05;;
7108;SDS011;29079;41.930;25.558;2023-07-16T13:53:38;8.70;;;7.88;;
7108;SDS011;29079;41.930;25.558;2023-07-16T13:56:26;11.27;;;8.23;;
7108;SDS011;29079;41.930;25.558;2023-07-16T13:59:14;9.23;;;8.32;;
7108;SDS011;29079;41.930;25.558;2023-07-16T14:02:02;8.55;;;7.72;;
7108;SDS011;29079;41.930;25.558;2023-07-16T14:04:51;10.02;;;7.47;;
7108;SDS011;29079;41.930;25.558;2023-07-16T14:07:40;11.38;;;8.95;;
7108;SDS011;29079;41.930;25.558;2023-07-16T14:10:29;9.27;;;8.30;;
7108;SDS011;29079;41.930;25.558;2023-07-16T14:13:17;9.95;;;8.63;;
7108;SDS011;29079;41.930;25.558;2023-07-16T14:16:04;10.93;;;8.27;;
7108;SDS011;29079;41.930;25.558;2023-07-16T14:18:52;11.65;;;10.60;;
7108;SDS011;29079;41.930;25.558;2023-07-16T14:21:41;18.65;;;15.68;;
7108;SDS011;29079;41.930;25.558;2023-07-16T14:24:29;11.95;;;8.52;;
7108;SDS011;29079;41.930;25.558;2023-07-16T14:27:18;11.35;;;10.20;;
7108;SDS011;29079;41.930;25.558;2023-07-16T14:30:07;12.30;;;10.05;;
7108;SDS011;29079;41.930;25.558;2023-07-16T14:32:57;20.50;;;17.58;;
7108;SDS011;29079;41.930;25.558;2023-07-16T14:35:45;22.10;;;18.55;;
7108;SDS011;29079;41.930;25.558;2023-07-16T14:38:33;16.35;;;12.68;;
7108;SDS011;29079;41.930;25.558;2023-07-16T14:41:21;59.60;;;42.15;;
7108;SDS011;29079;41.930;25.558;2023-07-16T14:44:10;20.08;;;16.58;;
7108;SDS011;29079;41.930;25.558;2023-07-16T14:46:58;23.10;;;19.98;;
7108;SDS011;29079;41.930;25.558;2023-07-16T14:49:46;18.60;;;16.20;;
7108;SDS011;29079;41.930;25.558;2023-07-16T14:52:34;17.38;;;13.55;;
7108;SDS011;29079;41.930;25.558;2023-07-16T14:55:22;16.55;;;10.35;;
7108;SDS011;29079;41.930;25.558;2023-07-16T14:58:10;12.38;;;11.02;;
7108;SDS011;29079;41.930;25.558;2023-07-16T15:01:00;19.33;;;15.60;;
7108;SDS011;29079;41.930;25.558;2023-07-16T15:03:50;20.85;;;15.95;;
7108;SDS011;29079;41.930;25.558;2023-07-16T15:06:38;14.40;;;10.70;;
7108;SDS011;29079;41.930;25.558;2023-07-16T15:09:28;16.88;;;13.68;;
7108;SDS011;29079;41.930;25.558;2023-07-16T15:12:16;22.65;;;17.08;;
7108;SDS011;29079;41.930;25.558;2023-07-16T15:15:04;24.35;;;20.52;;
7108;SDS011;29079;41.930;25.558;2023-07-16T15:17:54;18.50;;;13.10;;
7108;SDS011;29079;41.930;25.558;2023-07-16T15:20:42;15.18;;;12.10;;
7108;SDS011;29079;41.930;25.558;2023-07-16T15:23:30;12.07;;;8.45;;
7108;SDS011;29079;41.930;25.558;2023-07-16T15:26:18;17.65;;;11.27;;
7108;SDS011;29079;41.930;25.558;2023-07-16T15:29:06;18.42;;;13.95;;
7108;SDS011;29079;41.930;25.558;2023-07-16T15:31:54;15.95;;;13.35;;
7108;SDS011;29079;41.930;25.558;2023-07-16T15:34:45;18.50;;;16.02;;
7108;SDS011;29079;41.930;25.558;2023-07-16T15:37:33;16.65;;;12.00;;
7108;SDS011;29079;41.930;25.558;2023-07-16T15:40:21;18.10;;;12.32;;
7108;SDS011;29079;41.930;25.558;2023-07-16T15:43:08;13.43;;;10.73;;
7108;SDS011;29079;41.930;25.558;2023-07-16T15:45:56;17.10;;;13.60;;
7108;SDS011;29079;41.930;25.558;2023-07-16T15:48:44;15.00;;;11.60;;
7108;SDS011;29079;41.930;25.558;2023-07-16T15:51:34;12.93;;;10.07;;
7108;SDS011;29079;41.930;25.558;2023-07-16T15:54:24;15.07;;;11.18;;
7108;SDS011;29079;41.930;25.558;2023-07-16T15:57:12;11.82;;;10.13;;
7108;SDS011;29079;41.930;25.558;2023-07-16T16:00:00;14.15;;;10.52;;
7108;SDS011;29079;41.930;25.558;2023-07-16T16:02:48;14.40;;;9.13;;
7108;SDS011;29079;41.930;25.558;2023-07-16T16:05:37;13.18;;;8.80;;
7108;SDS011;29079;41.930;25.558;2023-07-16T16:08:27;11.13;;;9.40;;
7108;SDS011;29079;41.930;25.558;2023-07-16T16:11:15;12.07;;;9.23;;
7108;SDS011;29079;41.930;25.558;2023-07-16T16:14:03;13.77;;;9.70;;
7108;SDS011;29079;41.930;25.558;2023-07-16T16:16:55;11.77;;;10.50;;
7108;SDS011;29079;41.930;25.558;2023-07-16T16:19:53;10.10;;;9.05;;
7108;SDS011;29079;41.930;25.558;2023-07-16T16:22:41;11.48;;;9.52;;
7108;SDS011;29079;41.930;25.558;2023-07-16T16:25:31;11.90;;;10.07;;
7108;SDS011;29079;41.930;25.558;2023-07-16T16:28:23;14.90;;;9.88;;
7108;SDS011;29079;41.930;25.558;2023-07-16T16:31:11;12.65;;;11.25;;
7108;SDS011;29079;41.930;25.558;2023-07-16T16:33:59;12.55;;;11.25;;
7108;SDS011;29079;41.930;25.558;2023-07-16T16:36:46;12.63;;;11.43;;
7108;SDS011;29079;41.930;25.558;2023-07-16T16:39:34;12.13;;;10.90;;
7108;SDS011;29079;41.930;25.558;2023-07-16T16:42:23;17.70;;;13.43;;
7108;SDS011;29079;41.930;25.558;2023-07-16T16:45:12;12.23;;;9.75;;
7108;SDS011;29079;41.930;25.558;2023-07-16T16:48:02;20.52;;;13.23;;
7108;SDS011;29079;41.930;25.558;2023-07-16T16:50:53;16.02;;;10.07;;
7108;SDS011;29079;41.930;25.558;2023-07-16T16:53:41;11.52;;;9.77;;
7108;SDS011;29079;41.930;25.558;2023-07-16T16:56:30;12.73;;;7.82;;
7108;SDS011;29079;41.930;25.558;2023-07-16T16:59:19;8.98;;;8.07;;